Terminal Aerodrome Forecast
Issued by NWS

Home | Current Version | Previous Version | Text Only | Print | Product List | Glossary On
Versions: 1 2 3 4 5 6 7 8 9 10 11 12 13 14 15 16 17 18 19 20 21 22 23 24 25 26 27 28 29 30
287
FTUS41 KPBZ 232023 AAA
TAFZZV
TAF AMD
KZZV 232023Z 2320/2418 VRB05KT P6SM BKN020
     FM240100 25005KT P6SM -SHRA VCTS BKN035CB
     FM240500 25004KT 3SM BR BKN030
     FM240700 26004KT 2SM BR SCT008
     FM241100 27003KT P6SM SCT035=

USA.gov is the U.S. government's official web portal to all federal, state and local government web resources and services.